Time;durP1;ratioP1;P1;durP2;ratioP2;P2;SDS_P1;SDS_P2;PMS_P1;PMS_P2;Temp;Humidity;BMP_temperature;BMP_pressure;BME280_temperature;BME280_humidity;BME280_pressure;Samples;Min_cycle;Max_cycle;Signal;HPM_P1;HPM_P2
2022/05/25 00:02:04;;;;;;;;;;;15.70;99.40;;;;;;5078062;28;19932;-81
2022/05/25 00:04:31;;;;;;;;;;;15.70;99.40;;;;;;5081923;28;19935;-81
2022/05/25 00:06:58;;;;;;;;;;;15.60;99.30;;;;;;5081798;22;19932;-79
2022/05/25 00:09:25;;;;;;;;;;;15.60;99.30;;;;;;5063078;28;19925;-79
2022/05/25 00:11:53;;;;;;;;;;;15.60;99.20;;;;;;5067671;28;20409;-79
2022/05/25 00:14:21;;;;;;;;;;;15.60;99.20;;;;;;5064492;28;19943;-78
2022/05/25 00:16:48;;;;;;;;;;;15.60;99.30;;;;;;5064852;28;19959;-79
2022/05/25 00:22:00;;;;;;;;;;;;;;;;;;5064217;28;20029;-79
2022/05/25 00:24:28;;;;;;;;;;;15.50;98.90;;;;;;5064451;28;19931;-79
2022/05/25 00:26:55;;;;;;;;;;;15.50;99.30;;;;;;5072431;28;19928;-78
2022/05/25 00:29:23;;;;;;;;;;;15.50;99.00;;;;;;5057814;28;20004;-79
2022/05/25 00:31:50;;;;;;;;;;;15.50;99.00;;;;;;5060527;28;20426;-80
2022/05/25 00:34:17;;;;;;;;;;;15.50;99.00;;;;;;5063558;28;19928;-79
2022/05/25 00:36:44;;;;;;;;;;;15.50;99.00;;;;;;5062198;28;19939;-78
2022/05/25 00:39:11;;;;;;;;;;;15.40;99.00;;;;;;5056874;28;19929;-79
2022/05/25 00:41:38;;;;;;;;;;;15.40;99.00;;;;;;5059597;28;19924;-79
2022/05/25 00:44:05;;;;;;;;;;;15.40;99.30;;;;;;5065507;28;19944;-79
2022/05/25 00:46:35;;;;;;;;;;;15.40;99.00;;;;;;5060894;28;19925;-79
2022/05/25 00:49:04;;;;;;;;;;;15.40;99.00;;;;;;5060089;28;19932;-79
2022/05/25 00:51:37;;;;;;;;;;;15.40;99.00;;;;;;5058275;28;19964;-79
2022/05/25 00:54:06;;;;;;;;;;;15.40;99.00;;;;;;5062470;28;20020;-78
2022/05/25 00:56:34;;;;;;;;;;;15.40;98.90;;;;;;5056943;28;19929;-78
2022/05/25 00:59:03;;;;;;;;;;;15.40;99.00;;;;;;5061933;28;20069;-79
2022/05/25 01:01:31;;;;;;;;;;;15.40;98.90;;;;;;5061916;28;20421;-79
2022/05/25 01:03:59;;;;;;;;;;;15.30;98.90;;;;;;5064825;28;19950;-79
2022/05/25 01:06:32;;;;;;;;;;;15.30;98.80;;;;;;5061399;28;19924;-79
2022/05/25 01:09:02;;;;;;;;;;;15.30;98.90;;;;;;5059626;28;19931;-79
2022/05/25 01:11:34;;;;;;;;;;;15.30;98.90;;;;;;5057043;28;19932;-79
2022/05/25 01:14:07;;;;;;;;;;;15.30;98.80;;;;;;5060088;28;19925;-79
2022/05/25 01:16:37;;;;;;;;;;;15.20;98.80;;;;;;5063839;28;20397;-78
2022/05/25 01:19:11;;;;;;;;;;;15.20;98.80;;;;;;5058469;28;19924;-79
2022/05/25 01:21:44;;;;;;;;;;;15.20;98.80;;;;;;5059406;28;19940;-79
2022/05/25 01:24:19;;;;;;;;;;;15.20;98.80;;;;;;5056953;28;19925;-79
2022/05/25 01:27:05;;;;;;;;;;;15.20;98.80;;;;;;5056018;28;19925;-78
2022/05/25 01:29:41;;;;;;;;;;;15.20;98.90;;;;;;5061264;28;19968;-79
2022/05/25 01:32:12;;;;;;;;;;;15.10;98.80;;;;;;5059293;28;19924;-79
2022/05/25 01:34:42;;;;;;;;;;;15.10;98.80;;;;;;5062403;28;19970;-79
2022/05/25 01:37:20;;;;;;;;;;;15.10;98.90;;;;;;5059476;28;20019;-79
2022/05/25 01:39:52;;;;;;;;;;;15.10;98.90;;;;;;5058187;28;19929;-78
2022/05/25 01:42:21;;;;;;;;;;;15.10;98.90;;;;;;5059804;28;19924;-79
2022/05/25 01:44:52;;;;;;;;;;;15.10;98.90;;;;;;5058821;28;19939;-79
2022/05/25 01:47:21;;;;;;;;;;;15.10;98.90;;;;;;5058644;28;19928;-79
2022/05/25 01:49:50;;;;;;;;;;;15.00;98.90;;;;;;5055613;28;19939;-78
2022/05/25 01:52:19;;;;;;;;;;;15.00;98.90;;;;;;5060461;28;19937;-79
2022/05/25 01:54:50;;;;;;;;;;;15.00;98.90;;;;;;5061362;28;20022;-78
2022/05/25 01:57:18;;;;;;;;;;;15.00;98.90;;;;;;5055629;28;20417;-79
2022/05/25 01:59:45;;;;;;;;;;;15.00;98.90;;;;;;5061284;28;21276;-79
2022/05/25 02:05:01;;;;;;;;;;;14.90;98.90;;;;;;5061654;28;19944;-79
2022/05/25 02:07:33;;;;;;;;;;;14.90;98.90;;;;;;5058791;28;19939;-79
2022/05/25 02:10:06;;;;;;;;;;;14.90;98.90;;;;;;5058632;28;19931;-79
2022/05/25 02:12:37;;;;;;;;;;;14.90;98.90;;;;;;5058751;28;20489;-79
2022/05/25 02:15:07;;;;;;;;;;;14.90;98.90;;;;;;5062799;28;20007;-79
2022/05/25 02:17:39;;;;;;;;;;;14.90;98.80;;;;;;5059384;28;19933;-79
2022/05/25 02:20:09;;;;;;;;;;;14.80;98.80;;;;;;5056891;28;20027;-79
2022/05/25 02:22:38;;;;;;;;;;;14.80;98.80;;;;;;5054496;28;19925;-79
2022/05/25 02:25:09;;;;;;;;;;;14.80;98.90;;;;;;5059834;28;20005;-79
2022/05/25 02:27:39;;;;;;;;;;;14.80;98.90;;;;;;5059953;28;20276;-79
2022/05/25 02:30:08;;;;;;;;;;;14.80;98.90;;;;;;5058363;28;19994;-79
2022/05/25 02:32:39;;;;;;;;;;;14.80;98.80;;;;;;5056651;28;19925;-79
2022/05/25 02:35:07;;;;;;;;;;;14.70;98.90;;;;;;5058239;28;19924;-79
2022/05/25 02:37:35;;;;;;;;;;;14.70;98.90;;;;;;5061640;28;19933;-79
2022/05/25 02:40:03;;;;;;;;;;;14.70;98.90;;;;;;5055925;28;19932;-79
2022/05/25 02:42:31;;;;;;;;;;;14.70;98.90;;;;;;5059950;28;19928;-79
2022/05/25 02:44:58;;;;;;;;;;;14.70;98.90;;;;;;5059600;28;19928;-79
2022/05/25 02:47:25;;;;;;;;;;;14.70;98.90;;;;;;5062832;28;20386;-79
2022/05/25 02:49:53;;;;;;;;;;;14.60;98.80;;;;;;5053097;28;19960;-79
2022/05/25 02:52:20;;;;;;;;;;;14.70;98.90;;;;;;5059025;28;19924;-79
2022/05/25 02:54:47;;;;;;;;;;;14.60;98.90;;;;;;5059660;28;21334;-79
2022/05/25 02:57:14;;;;;;;;;;;14.60;98.80;;;;;;5061157;28;20481;-80
2022/05/25 02:59:41;;;;;;;;;;;14.60;98.90;;;;;;5056532;28;19936;-79
2022/05/25 03:02:08;;;;;;;;;;;14.60;98.80;;;;;;5061655;28;19972;-79
2022/05/25 03:04:37;;;;;;;;;;;14.50;98.80;;;;;;5063530;28;19932;-79
2022/05/25 03:07:06;;;;;;;;;;;14.60;98.90;;;;;;5057186;28;19931;-79
2022/05/25 03:09:34;;;;;;;;;;;14.60;98.90;;;;;;5076220;28;19931;-79
2022/05/25 03:12:02;;;;;;;;;;;14.50;99.00;;;;;;5054614;28;20356;-79
2022/05/25 03:14:29;;;;;;;;;;;14.50;99.00;;;;;;5061777;28;19929;-79
2022/05/25 03:16:58;;;;;;;;;;;14.50;99.00;;;;;;5061208;28;20516;-79
2022/05/25 03:19:25;;;;;;;;;;;14.50;98.90;;;;;;5058999;28;19928;-79
2022/05/25 03:21:52;;;;;;;;;;;14.50;98.90;;;;;;5058148;28;20413;-79
2022/05/25 03:24:20;;;;;;;;;;;14.50;99.00;;;;;;5076075;28;19924;-79
2022/05/25 03:26:48;;;;;;;;;;;14.50;98.90;;;;;;5057443;28;19958;-79
2022/05/25 03:29:18;;;;;;;;;;;14.40;98.90;;;;;;5067508;28;19964;-79
2022/05/25 03:31:45;;;;;;;;;;;14.40;98.90;;;;;;5062026;28;20414;-79
2022/05/25 03:34:12;;;;;;;;;;;14.40;98.80;;;;;;5065229;28;19977;-79
2022/05/25 03:36:38;;;;;;;;;;;14.40;98.80;;;;;;5058848;28;19967;-79
2022/05/25 03:39:05;;;;;;;;;;;14.40;98.80;;;;;;5060201;28;19937;-79
2022/05/25 03:41:34;;;;;;;;;;;14.40;98.70;;;;;;5053497;28;19939;-79
2022/05/25 03:44:01;;;;;;;;;;;14.40;98.70;;;;;;5061384;28;20052;-79
2022/05/25 03:46:28;;;;;;;;;;;14.30;98.60;;;;;;5060106;28;20486;-79
2022/05/25 03:48:54;;;;;;;;;;;14.30;98.60;;;;;;5057773;28;19929;-79
2022/05/25 03:51:21;;;;;;;;;;;14.30;98.60;;;;;;5059215;28;19931;-79
2022/05/25 03:53:49;;;;;;;;;;;14.30;98.60;;;;;;5056012;28;19933;-77
2022/05/25 03:56:16;;;;;;;;;;;14.30;98.60;;;;;;5059288;28;20307;-79
2022/05/25 03:58:46;;;;;;;;;;;14.30;98.60;;;;;;5052139;28;19924;-79
2022/05/25 04:01:13;;;;;;;;;;;14.30;98.30;;;;;;5064680;28;20020;-79
2022/05/25 04:03:40;;;;;;;;;;;14.30;98.50;;;;;;5066041;28;20039;-79
2022/05/25 04:06:07;;;;;;;;;;;14.20;98.50;;;;;;5061461;28;19963;-79
2022/05/25 04:08:34;;;;;;;;;;;14.10;98.60;;;;;;5062526;28;20556;-79
2022/05/25 04:11:01;;;;;;;;;;;14.10;98.60;;;;;;5066074;28;19931;-79
2022/05/25 04:13:27;;;;;;;;;;;14.00;98.60;;;;;;5064837;28;19966;-79
2022/05/25 04:15:56;;;;;;;;;;;14.00;98.70;;;;;;5058816;28;19954;-79
2022/05/25 04:18:23;;;;;;;;;;;14.00;98.80;;;;;;5054505;28;19926;-78
2022/05/25 04:20:49;;;;;;;;;;;14.00;98.80;;;;;;5061257;28;19986;-79
2022/05/25 04:23:17;;;;;;;;;;;14.00;98.80;;;;;;5055668;28;20561;-79
2022/05/25 04:25:44;;;;;;;;;;;13.90;98.90;;;;;;5067110;28;19928;-79
2022/05/25 04:28:11;;;;;;;;;;;14.00;99.10;;;;;;5066242;28;20410;-79
2022/05/25 04:30:38;;;;;;;;;;;13.90;99.10;;;;;;5056845;28;19936;-79
2022/05/25 04:33:06;;;;;;;;;;;13.90;99.10;;;;;;5058764;28;19939;-79
2022/05/25 04:35:33;;;;;;;;;;;13.90;99.40;;;;;;5060748;28;19931;-79
2022/05/25 04:38:00;;;;;;;;;;;13.90;99.80;;;;;;5056541;28;19955;-79
2022/05/25 04:40:28;;;;;;;;;;;13.90;99.50;;;;;;5058239;28;19928;-79
2022/05/25 04:42:55;;;;;;;;;;;13.90;99.50;;;;;;5064026;28;19935;-79
2022/05/25 04:45:25;;;;;;;;;;;13.90;99.50;;;;;;5058518;28;19925;-80
2022/05/25 04:47:52;;;;;;;;;;;13.90;99.90;;;;;;5063459;28;19942;-83
2022/05/25 04:50:22;;;;;;;;;;;13.80;99.90;;;;;;5068364;28;20058;-81
2022/05/25 04:52:49;;;;;;;;;;;13.80;99.90;;;;;;5061675;28;20459;-81
2022/05/25 04:57:57;;;;;;;;;;;13.80;99.90;;;;;;5057942;28;19979;-80
2022/05/25 05:00:24;;;;;;;;;;;13.80;99.90;;;;;;5064685;28;20344;-78
2022/05/25 05:02:51;;;;;;;;;;;13.80;99.90;;;;;;5062422;28;20023;-82
2022/05/25 05:05:18;;;;;;;;;;;13.80;99.90;;;;;;5065417;28;19956;-79
2022/05/25 05:07:47;;;;;;;;;;;13.80;99.90;;;;;;5061207;28;19932;-81
2022/05/25 05:10:14;;;;;;;;;;;13.80;99.90;;;;;;5056955;28;20035;-80
2022/05/25 05:12:41;;;;;;;;;;;13.80;99.90;;;;;;5054912;28;21206;-80
2022/05/25 05:15:10;;;;;;;;;;;13.80;99.90;;;;;;5067559;28;20429;-80
2022/05/25 05:17:37;;;;;;;;;;;13.80;99.90;;;;;;5062325;28;19932;-78
2022/05/25 05:20:18;;;;;;;;;;;13.70;99.90;;;;;;5065862;28;20395;-79
2022/05/25 05:22:46;;;;;;;;;;;13.70;99.90;;;;;;5054134;28;20169;-80
2022/05/25 05:25:13;;;;;;;;;;;13.70;99.90;;;;;;5053040;28;19940;-79
2022/05/25 05:27:40;;;;;;;;;;;13.70;99.90;;;;;;5062186;28;20414;-80
2022/05/25 05:30:08;;;;;;;;;;;13.70;99.90;;;;;;5058984;28;19928;-79
2022/05/25 05:32:35;;;;;;;;;;;13.70;99.90;;;;;;5061135;28;19931;-80
2022/05/25 05:35:02;;;;;;;;;;;13.70;99.90;;;;;;5063022;28;20344;-79
2022/05/25 05:37:31;;;;;;;;;;;13.70;99.90;;;;;;5060790;28;20122;-79
2022/05/25 05:40:01;;;;;;;;;;;13.60;99.90;;;;;;5065443;28;20341;-80
2022/05/25 05:42:28;;;;;;;;;;;13.60;99.90;;;;;;5054550;28;19924;-80
2022/05/25 05:44:58;;;;;;;;;;;13.60;99.90;;;;;;5065897;28;19929;-79
2022/05/25 05:47:27;;;;;;;;;;;13.60;99.90;;;;;;5065000;28;19925;-79
2022/05/25 05:49:54;;;;;;;;;;;13.60;99.90;;;;;;5057082;28;20015;-79
2022/05/25 05:52:21;;;;;;;;;;;13.60;99.90;;;;;;5059292;28;19931;-80
2022/05/25 05:54:48;;;;;;;;;;;13.60;99.90;;;;;;5056363;28;20417;-80
2022/05/25 05:57:16;;;;;;;;;;;13.60;99.90;;;;;;5061532;28;19925;-80
2022/05/25 05:59:44;;;;;;;;;;;13.60;99.90;;;;;;5057787;28;20046;-81
2022/05/25 06:02:10;;;;;;;;;;;13.60;99.90;;;;;;5057614;28;20454;-83
2022/05/25 06:04:37;;;;;;;;;;;13.60;99.90;;;;;;5066472;28;19924;-79
2022/05/25 06:07:04;;;;;;;;;;;13.60;99.90;;;;;;5066626;28;19924;-82
2022/05/25 06:09:32;;;;;;;;;;;13.60;99.90;;;;;;5062789;28;19924;-81
2022/05/25 06:11:59;;;;;;;;;;;13.60;99.90;;;;;;5063449;28;20003;-79
2022/05/25 06:14:27;;;;;;;;;;;13.60;99.90;;;;;;5065903;28;19924;-79
2022/05/25 06:19:38;;;;;;;;;;;13.60;99.90;;;;;;5061211;22;20060;-82
2022/05/25 06:22:07;;;;;;;;;;;13.60;99.90;;;;;;5049575;28;19933;-82
2022/05/25 06:24:35;;;;;;;;;;;13.60;99.90;;;;;;5052754;28;20310;-85
2022/05/25 06:27:02;;;;;;;;;;;13.60;99.90;;;;;;5052252;28;20438;-83
2022/05/25 06:29:31;;;;;;;;;;;13.60;99.90;;;;;;5045873;28;19943;-82
2022/05/25 06:31:57;;;;;;;;;;;13.60;99.90;;;;;;5040094;28;19933;-82
2022/05/25 06:34:24;;;;;;;;;;;13.60;99.90;;;;;;5037624;28;20410;-83
2022/05/25 06:36:51;;;;;;;;;;;13.60;99.90;;;;;;5046197;28;19956;-83
2022/05/25 06:39:18;;;;;;;;;;;13.60;99.90;;;;;;5039615;28;20318;-83
2022/05/25 06:41:45;;;;;;;;;;;13.60;99.90;;;;;;5043188;28;19968;-83
2022/05/25 06:44:12;;;;;;;;;;;13.60;99.90;;;;;;5046782;28;20108;-83
2022/05/25 06:46:40;;;;;;;;;;;13.60;99.90;;;;;;5040358;28;20403;-83
2022/05/25 06:49:10;;;;;;;;;;;13.60;99.90;;;;;;5045717;28;20435;-83
2022/05/25 06:51:37;;;;;;;;;;;13.60;99.90;;;;;;5042596;28;20003;-83
2022/05/25 06:54:05;;;;;;;;;;;13.60;99.90;;;;;;5044231;28;20242;-83
2022/05/25 06:56:32;;;;;;;;;;;13.60;99.90;;;;;;5043289;28;19931;-81
2022/05/25 06:58:59;;;;;;;;;;;13.60;99.90;;;;;;5047801;28;19925;-84
2022/05/25 07:01:26;;;;;;;;;;;13.60;99.90;;;;;;5048263;28;19939;-82
2022/05/25 07:03:56;;;;;;;;;;;13.60;99.90;;;;;;5059085;28;19933;-83
2022/05/25 07:06:24;;;;;;;;;;;13.70;99.90;;;;;;5085604;28;19970;-84
2022/05/25 07:08:53;;;;;;;;;;;13.70;99.90;;;;;;5051168;28;20068;-82
2022/05/25 07:11:20;;;;;;;;;;;13.70;99.90;;;;;;5049854;28;19931;-83
2022/05/25 07:13:47;;;;;;;;;;;13.70;99.90;;;;;;5050525;28;20448;-82
2022/05/25 07:16:15;;;;;;;;;;;13.70;99.90;;;;;;5051455;28;19929;-82
2022/05/25 07:18:43;;;;;;;;;;;13.70;99.90;;;;;;5062521;28;20003;-82
2022/05/25 07:21:13;;;;;;;;;;;13.70;99.90;;;;;;5043694;28;20402;-82
2022/05/25 07:23:41;;;;;;;;;;;13.70;99.90;;;;;;5027474;28;20390;-82
2022/05/25 07:26:09;;;;;;;;;;;13.70;99.90;;;;;;5043234;28;20588;-82
2022/05/25 07:28:39;;;;;;;;;;;13.70;99.90;;;;;;5012203;28;19933;-83
2022/05/25 07:31:07;;;;;;;;;;;13.80;99.90;;;;;;5055742;28;19925;-83
2022/05/25 07:33:35;;;;;;;;;;;13.80;99.90;;;;;;5039585;28;20164;-85
2022/05/25 07:36:02;;;;;;;;;;;13.80;99.90;;;;;;5034803;28;19959;-86
2022/05/25 07:38:31;;;;;;;;;;;13.80;99.90;;;;;;5040204;28;19944;-82
2022/05/25 07:40:59;;;;;;;;;;;13.80;99.90;;;;;;5040697;28;20348;-83
2022/05/25 07:43:28;;;;;;;;;;;13.80;99.90;;;;;;5043138;28;20390;-82
2022/05/25 07:45:55;;;;;;;;;;;13.80;99.90;;;;;;5040012;28;19940;-85
2022/05/25 07:48:22;;;;;;;;;;;13.90;99.90;;;;;;5038842;28;19924;-84
2022/05/25 07:50:49;;;;;;;;;;;13.90;99.90;;;;;;5042757;28;19940;-83
2022/05/25 07:56:03;;;;;;;;;;;13.90;99.90;;;;;;5032798;28;19928;-82
2022/05/25 07:58:30;;;;;;;;;;;13.90;99.90;;;;;;5059270;28;20008;-84
2022/05/25 08:00:59;;;;;;;;;;;13.90;99.90;;;;;;5042897;28;19933;-85
2022/05/25 08:06:10;;;;;;;;;;;14.00;99.90;;;;;;5042330;28;19921;-86
2022/05/25 08:08:37;;;;;;;;;;;14.00;99.90;;;;;;5040126;28;20340;-83
2022/05/25 08:11:09;;;;;;;;;;;14.00;99.90;;;;;;5043085;28;19928;-85
2022/05/25 08:13:36;;;;;;;;;;;14.00;99.90;;;;;;5042433;28;19952;-83
2022/05/25 08:16:03;;;;;;;;;;;14.00;99.90;;;;;;5052770;28;19992;-83
2022/05/25 08:18:30;;;;;;;;;;;14.00;99.90;;;;;;5039554;28;19925;-83
2022/05/25 08:20:57;;;;;;;;;;;14.00;99.90;;;;;;5032613;28;19935;-80
2022/05/25 08:23:24;;;;;;;;;;;14.10;99.90;;;;;;5040052;28;19932;-82
2022/05/25 08:25:51;;;;;;;;;;;14.10;99.90;;;;;;5041636;28;19975;-83
2022/05/25 08:28:19;;;;;;;;;;;14.10;99.90;;;;;;5039188;28;20027;-80
2022/05/25 08:30:46;;;;;;;;;;;14.10;99.90;;;;;;5029327;28;19934;-81
2022/05/25 08:33:16;;;;;;;;;;;14.10;99.90;;;;;;5042287;28;19933;-82
2022/05/25 08:35:44;;;;;;;;;;;14.10;99.90;;;;;;5039376;28;20016;-83
2022/05/25 08:38:11;;;;;;;;;;;14.20;99.90;;;;;;5043408;28;19924;-82
2022/05/25 08:40:39;;;;;;;;;;;14.10;99.90;;;;;;5044195;28;19932;-84
2022/05/25 08:43:08;;;;;;;;;;;14.20;99.90;;;;;;5034649;28;19929;-85
2022/05/25 08:45:39;;;;;;;;;;;14.20;99.90;;;;;;5049395;28;19929;-83
2022/05/25 08:48:08;;;;;;;;;;;14.20;99.90;;;;;;5035163;28;19929;-84
2022/05/25 08:50:36;;;;;;;;;;;14.20;99.90;;;;;;5037633;28;19928;-82
2022/05/25 08:53:04;;;;;;;;;;;14.20;99.90;;;;;;5035189;28;21313;-84
2022/05/25 08:55:45;;;;;;;;;;;14.30;99.90;;;;;;5035305;28;19932;-86
2022/05/25 08:58:13;;;;;;;;;;;14.30;99.90;;;;;;5039992;28;19925;-82
2022/05/25 09:00:42;;;;;;;;;;;14.30;99.90;;;;;;5033823;28;20032;-85
2022/05/25 09:03:12;;;;;;;;;;;14.30;99.90;;;;;;5036917;28;19950;-83
2022/05/25 09:05:41;;;;;;;;;;;14.30;99.90;;;;;;5044785;28;19978;-82
2022/05/25 09:08:13;;;;;;;;;;;14.30;99.90;;;;;;5037322;28;19924;-85
2022/05/25 09:10:43;;;;;;;;;;;14.40;99.90;;;;;;5035157;28;19971;-83
2022/05/25 09:13:13;;;;;;;;;;;14.40;99.90;;;;;;5031931;28;20318;-84
2022/05/25 09:18:26;;;;;;;;;;;14.40;99.90;;;;;;5038096;28;19924;-87
2022/05/25 09:20:53;;;;;;;;;;;14.50;99.90;;;;;;5053690;28;19929;-82
2022/05/25 09:26:13;;;;;;;;;;;14.50;99.90;;;;;;4923911;28;19942;-85
2022/05/25 09:28:42;;;;;;;;;;;14.50;99.90;;;;;;4916947;28;19926;-83
2022/05/25 09:31:12;;;;;;;;;;;14.50;99.90;;;;;;4932498;28;19927;-85
2022/05/25 09:33:41;;;;;;;;;;;14.50;99.90;;;;;;4935800;28;19927;-83
2022/05/25 09:36:09;;;;;;;;;;;14.50;99.90;;;;;;4937067;28;20340;-83
2022/05/25 09:38:42;;;;;;;;;;;14.50;99.90;;;;;;4940404;28;19925;-82
2022/05/25 09:41:11;;;;;;;;;;;14.60;99.90;;;;;;4936568;28;19934;-83
2022/05/25 09:43:39;;;;;;;;;;;14.60;99.90;;;;;;4920376;28;21704;-82
2022/05/25 09:46:08;;;;;;;;;;;14.60;99.90;;;;;;4948689;28;19934;-82
2022/05/25 09:48:40;;;;;;;;;;;14.60;99.90;;;;;;4929060;28;19931;-83
2022/05/25 09:51:15;;;;;;;;;;;14.60;99.90;;;;;;4914709;28;19935;-84
2022/05/25 09:53:44;;;;;;;;;;;14.70;99.90;;;;;;4934712;28;20332;-82
2022/05/25 09:56:16;;;;;;;;;;;14.70;99.90;;;;;;4927523;28;19931;-85
2022/05/25 09:58:45;;;;;;;;;;;14.70;99.90;;;;;;4923087;28;19985;-85
2022/05/25 10:01:20;;;;;;;;;;;14.70;99.90;;;;;;4924674;28;19954;-82
2022/05/25 10:03:50;;;;;;;;;;;14.70;99.90;;;;;;4957853;28;19931;-86
2022/05/25 10:06:20;;;;;;;;;;;14.70;99.90;;;;;;4930753;28;20385;-82
2022/05/25 10:08:50;;;;;;;;;;;14.80;99.90;;;;;;4918617;28;20049;-84
2022/05/25 10:11:29;;;;;;;;;;;14.80;99.90;;;;;;4940832;28;20216;-82
2022/05/25 10:13:59;;;;;;;;;;;14.80;99.90;;;;;;4927244;28;20345;-84
2022/05/25 10:16:28;;;;;;;;;;;14.80;99.90;;;;;;4925579;28;20327;-82
2022/05/25 10:18:56;;;;;;;;;;;14.80;99.90;;;;;;4931711;28;19990;-82
2022/05/25 10:21:29;;;;;;;;;;;14.90;99.90;;;;;;4940504;28;19941;-82
2022/05/25 10:23:59;;;;;;;;;;;14.90;99.90;;;;;;4945874;28;19933;-82
2022/05/25 10:26:34;;;;;;;;;;;14.90;99.90;;;;;;4950764;28;19925;-82
2022/05/25 10:29:04;;;;;;;;;;;14.90;99.90;;;;;;4927198;28;20409;-84
2022/05/25 10:37:14;;;;;;;;;;;15.00;99.90;;;;;;4930156;28;19934;-79
2022/05/25 10:39:42;;;;;;;;;;;15.00;99.90;;;;;;4916692;28;19933;-80
2022/05/25 10:42:13;;;;;;;;;;;15.10;99.90;;;;;;4917761;28;21277;-81
2022/05/25 10:44:44;;;;;;;;;;;15.20;99.90;;;;;;4934059;28;19927;-80
2022/05/25 10:47:17;;;;;;;;;;;15.20;99.90;;;;;;4953433;28;19934;-81
2022/05/25 10:49:46;;;;;;;;;;;15.20;99.90;;;;;;4935800;28;19949;-81
2022/05/25 10:52:19;;;;;;;;;;;15.20;99.90;;;;;;4949064;28;19927;-81
2022/05/25 10:54:47;;;;;;;;;;;15.20;99.90;;;;;;4947578;28;19935;-81
2022/05/25 10:57:23;;;;;;;;;;;15.20;99.90;;;;;;4931648;28;19981;-80
2022/05/25 10:59:54;;;;;;;;;;;15.20;99.90;;;;;;4950997;28;19925;-80
2022/05/25 11:02:29;;;;;;;;;;;15.20;99.90;;;;;;4930645;28;19931;-80
2022/05/25 11:05:09;;;;;;;;;;;15.30;99.90;;;;;;4951714;28;19925;-81
2022/05/25 11:07:36;;;;;;;;;;;15.30;99.90;;;;;;4937338;28;19927;-80
2022/05/25 11:10:21;;;;;;;;;;;15.30;99.90;;;;;;4936745;28;20389;-80
2022/05/25 11:12:53;;;;;;;;;;;15.40;99.90;;;;;;4930455;28;20336;-81
2022/05/25 11:15:24;;;;;;;;;;;15.40;99.90;;;;;;4954232;28;19977;-81
2022/05/25 11:18:11;;;;;;;;;;;15.40;99.90;;;;;;4933483;28;19939;-81
2022/05/25 11:20:45;;;;;;;;;;;15.40;99.90;;;;;;4936612;28;20074;-80
2022/05/25 11:23:30;;;;;;;;;;;15.40;99.90;;;;;;4927359;28;20024;-80
2022/05/25 11:26:11;;;;;;;;;;;15.50;99.90;;;;;;4960869;28;19945;-81
2022/05/25 11:28:45;;;;;;;;;;;15.50;99.90;;;;;;4939941;28;20381;-81
2022/05/25 11:31:18;;;;;;;;;;;15.40;99.90;;;;;;4935261;28;19933;-81
2022/05/25 11:33:52;;;;;;;;;;;15.50;99.90;;;;;;4938310;28;19937;-81
2022/05/25 11:36:27;;;;;;;;;;;15.60;99.90;;;;;;4939702;28;19935;-81
2022/05/25 11:39:02;;;;;;;;;;;15.60;99.90;;;;;;4957471;28;19933;-81
2022/05/25 11:41:33;;;;;;;;;;;15.60;99.90;;;;;;4935016;28;19949;-79
2022/05/25 11:44:06;;;;;;;;;;;15.60;99.90;;;;;;4930513;28;19930;-80
2022/05/25 11:46:37;;;;;;;;;;;15.60;99.90;;;;;;4937685;28;19935;-81
2022/05/25 11:49:13;;;;;;;;;;;15.70;99.90;;;;;;4932993;28;19943;-81
2022/05/25 11:51:46;;;;;;;;;;;15.70;99.90;;;;;;4931053;28;19934;-81
2022/05/25 11:54:21;;;;;;;;;;;15.70;99.90;;;;;;4938698;28;19958;-81
2022/05/25 11:56:52;;;;;;;;;;;15.70;99.90;;;;;;4934196;28;20284;-81
2022/05/25 11:59:37;;;;;;;;;;;15.80;99.90;;;;;;4934112;28;19926;-81
2022/05/25 12:02:09;;;;;;;;;;;15.80;99.90;;;;;;4953863;28;20401;-80
2022/05/25 12:04:45;;;;;;;;;;;15.80;99.90;;;;;;4937384;28;20415;-81
2022/05/25 12:07:31;;;;;;;;;;;15.80;99.90;;;;;;4947927;28;19933;-81
2022/05/25 12:10:22;;;;;;;;;;;15.90;99.90;;;;;;4953154;28;19927;-81
2022/05/25 12:12:54;;;;;;;;;;;15.90;99.90;;;;;;4954549;28;19927;-81
2022/05/25 12:15:23;;;;;;;;;;;15.90;99.90;;;;;;4937924;28;19941;-81
2022/05/25 12:17:58;;;;;;;;;;;16.00;99.90;;;;;;4924916;28;19931;-81
2022/05/25 12:20:28;;;;;;;;;;;16.00;99.90;;;;;;4936289;28;20045;-80
2022/05/25 12:22:59;;;;;;;;;;;16.00;99.90;;;;;;4930122;28;19935;-86
2022/05/25 12:25:28;;;;;;;;;;;16.20;99.90;;;;;;4925826;28;21667;-84
2022/05/25 12:27:57;;;;;;;;;;;16.20;99.90;;;;;;4934251;28;19997;-83
2022/05/25 12:30:33;;;;;;;;;;;16.30;99.90;;;;;;5045411;22;19949;-88
2022/05/25 12:33:00;;;;;;;;;;;16.30;99.90;;;;;;4984693;28;19926;-87
2022/05/25 12:35:30;;;;;;;;;;;16.30;99.90;;;;;;4961874;28;19993;-90
2022/05/25 12:37:59;;;;;;;;;;;16.40;99.90;;;;;;4959173;28;19933;-89
2022/05/25 12:40:40;;;;;;;;;;;16.40;99.90;;;;;;4964602;28;19930;-89
2022/05/25 12:43:27;;;;;;;;;;;16.40;99.90;;;;;;4965166;28;19926;-90
2022/05/25 12:48:47;;;;;;;;;;;16.50;99.90;;;;;;4964076;28;19925;-89
2022/05/25 12:51:28;;;;;;;;;;;16.50;99.90;;;;;;4963824;28;19960;-89
2022/05/25 12:54:00;;;;;;;;;;;16.50;99.90;;;;;;4969780;28;20327;-88
2022/05/25 12:56:34;;;;;;;;;;;16.60;99.90;;;;;;4985919;28;19937;-89
2022/05/25 12:59:04;;;;;;;;;;;16.60;99.90;;;;;;4959420;28;19953;-88
2022/05/25 13:01:33;;;;;;;;;;;16.60;99.90;;;;;;4971615;28;19926;-87
2022/05/25 13:04:21;;;;;;;;;;;16.60;99.90;;;;;;4981350;28;19930;-89
2022/05/25 13:07:08;;;;;;;;;;;16.70;99.90;;;;;;4978497;28;20277;-89
2022/05/25 13:09:40;;;;;;;;;;;16.80;99.90;;;;;;4968199;28;21437;-88
2022/05/25 13:12:27;;;;;;;;;;;16.80;99.90;;;;;;4978886;28;19930;-90
2022/05/25 13:14:56;;;;;;;;;;;16.80;99.90;;;;;;4963327;28;19937;-88
2022/05/25 13:17:50;;;;;;;;;;;16.90;99.90;;;;;;4975983;28;19926;-86
2022/05/25 13:20:46;;;;;;;;;;;16.90;99.90;;;;;;4929893;28;19988;-87
2022/05/25 13:23:34;;;;;;;;;;;16.90;99.90;;;;;;4962302;28;19931;-85
2022/05/25 13:26:04;;;;;;;;;;;16.90;99.90;;;;;;4961126;28;20430;-84
2022/05/25 13:28:37;;;;;;;;;;;17.00;99.90;;;;;;4968382;28;19925;-84
2022/05/25 13:31:08;;;;;;;;;;;17.00;99.90;;;;;;4980992;28;19977;-85
2022/05/25 13:33:39;;;;;;;;;;;17.10;99.90;;;;;;4966839;28;19996;-87
2022/05/25 13:36:07;;;;;;;;;;;17.10;99.90;;;;;;4979004;28;19937;-86
2022/05/25 13:38:37;;;;;;;;;;;17.10;99.90;;;;;;4977234;28;19926;-88
2022/05/25 13:41:08;;;;;;;;;;;17.20;99.90;;;;;;4961856;28;19934;-88
2022/05/25 13:43:48;;;;;;;;;;;17.20;99.90;;;;;;4972895;28;20010;-87
2022/05/25 13:46:29;;;;;;;;;;;17.30;99.90;;;;;;4973805;28;20189;-87
2022/05/25 13:48:57;;;;;;;;;;;17.30;99.90;;;;;;4990510;28;20561;-88
2022/05/25 13:51:25;;;;;;;;;;;17.40;99.90;;;;;;4969943;28;20103;-88
2022/05/25 13:53:52;;;;;;;;;;;17.40;99.90;;;;;;4981426;28;20056;-88
2022/05/25 13:56:22;;;;;;;;;;;17.50;99.90;;;;;;4974659;28;19941;-88
2022/05/25 13:58:50;;;;;;;;;;;17.50;99.90;;;;;;4971923;28;19927;-88
2022/05/25 14:01:21;;;;;;;;;;;17.50;99.90;;;;;;4971428;28;19926;-87
2022/05/25 14:03:51;;;;;;;;;;;17.60;99.90;;;;;;4963200;28;19926;-88
2022/05/25 14:06:19;;;;;;;;;;;17.60;99.90;;;;;;4973037;28;20304;-87
2022/05/25 14:11:36;;;;;;;;;;;17.70;99.90;;;;;;4991259;28;20342;-89
2022/05/25 14:14:03;;;;;;;;;;;17.70;99.90;;;;;;4974463;28;19934;-87
2022/05/25 14:16:33;;;;;;;;;;;17.70;99.90;;;;;;4980288;28;19934;-88
2022/05/25 14:19:01;;;;;;;;;;;17.80;99.90;;;;;;4967122;28;19933;-88
2022/05/25 14:21:36;;;;;;;;;;;17.80;99.90;;;;;;4970271;28;20444;-88
2022/05/25 14:24:05;;;;;;;;;;;17.90;99.90;;;;;;4986015;28;19934;-87
2022/05/25 14:26:34;;;;;;;;;;;17.90;99.90;;;;;;4970296;28;20091;-87
2022/05/25 14:29:05;;;;;;;;;;;18.00;99.90;;;;;;4969647;28;19971;-89
2022/05/25 14:31:33;;;;;;;;;;;18.00;99.90;;;;;;4961502;28;19960;-90
2022/05/25 14:34:04;;;;;;;;;;;18.00;99.90;;;;;;4968371;28;20013;-90
2022/05/25 14:36:31;;;;;;;;;;;18.10;99.90;;;;;;4962511;28;19930;-90
2022/05/25 14:38:58;;;;;;;;;;;18.10;99.90;;;;;;4980237;28;19934;-91
2022/05/25 14:41:28;;;;;;;;;;;18.10;99.90;;;;;;4977890;28;19974;-91
2022/05/25 14:43:58;;;;;;;;;;;18.20;99.90;;;;;;4967095;28;19937;-93
2022/05/25 14:46:28;;;;;;;;;;;18.20;99.90;;;;;;4967232;28;19934;-90
2022/05/25 14:48:57;;;;;;;;;;;18.30;99.90;;;;;;4971458;28;19969;-90
2022/05/25 14:51:26;;;;;;;;;;;18.30;99.90;;;;;;4964487;28;19926;-86
2022/05/25 14:53:54;;;;;;;;;;;18.30;99.90;;;;;;4965815;28;20001;-86
2022/05/25 14:56:24;;;;;;;;;;;18.40;99.90;;;;;;4966879;28;19930;-88
2022/05/25 14:58:52;;;;;;;;;;;18.40;99.50;;;;;;4969895;28;19991;-88
2022/05/25 15:01:21;;;;;;;;;;;18.50;99.40;;;;;;4975828;28;19945;-88
2022/05/25 15:04:01;;;;;;;;;;;18.50;99.50;;;;;;4972751;28;19926;-86
2022/05/25 15:06:30;;;;;;;;;;;18.50;99.60;;;;;;4978656;28;20287;-88
2022/05/25 15:09:05;;;;;;;;;;;18.50;99.50;;;;;;4973715;28;19926;-88